This is the latest recevied weather packets stored in our database for station/object IW3HBX-13. If no packets are shown the sender has not sent any weather packets the latest 10 day(s).
| Time | Temp. | Humidity | Pressure | Rain* | Wind** | Luminosity | Snow |
|---|---|---|---|---|---|---|---|
| 1777702328 | 13.89° C | 60% | 1026.7 hPa | 0 mm | - | 186 W/m² | - |
| 1777701967 | 13.89° C | 61% | 1026.6 hPa | 0 mm | - | 168 W/m² | - |
| 1777701247 | 12.78° C | 62% | 1026.7 hPa | 0 mm | - | 133 W/m² | - |
| 1777700887 | 12.78° C | 63% | 1026.7 hPa | 0 mm | - | 120 W/m² | - |
| 1777700530 | 12.22° C | 62% | 1026.6 hPa | 0 mm | - | 105 W/m² | - |
| 1777700167 | 11.67° C | 64% | 1026.7 hPa | 0 mm | - | 91 W/m² | - |
| 1777699807 | 11.11° C | 66% | 1026.8 hPa | 0 mm | - | 80 W/m² | - |
| 1777699448 | 11.11° C | 65% | 1026.7 hPa | 0 mm | - | 71 W/m² | - |
| 1777699088 | 11.11° C | 66% | 1026.7 hPa | 0 mm | - | 63 W/m² | - |
| 1777698727 | 11.11° C | 66% | 1026.7 hPa | 0 mm | - | 57 W/m² | - |
| 1777698367 | 11.11° C | 66% | 1026.7 hPa | 0 mm | - | 51 W/m² | - |
| 1777697649 | 10.56° C | 69% | 1026.6 hPa | 0 mm | - | 41 W/m² | - |
| 1777697287 | 10° C | 69% | 1026.5 hPa | 0 mm | - | 36 W/m² | - |
| 1777696927 | 10° C | 69% | 1026.6 hPa | 0 mm | - | 31 W/m² | - |
| 1777696569 | 9.44° C | 70% | 1026.5 hPa | 0 mm | - | 27 W/m² | - |
| 1777696209 | 9.44° C | 71% | 1026.5 hPa | 0 mm | - | 20 W/m² | - |
| 1777695849 | 8.89° C | 72% | 1026.5 hPa | 0 mm | - | 17 W/m² | - |
| 1777695487 | 8.89° C | 73% | 1026.6 hPa | 0 mm | - | 12 W/m² | - |
| 1777695128 | 8.89° C | 74% | 1026.5 hPa | 0 mm | - | 8 W/m² | - |
| 1777694769 | 8.89° C | 74% | 1026.6 hPa | 0 mm | - | 5 W/m² | - |
| 1777694051 | 8.89° C | 74% | 1026.6 hPa | 0 mm | - | 2 W/m² | - |
| 1777693688 | 8.89° C | 74% | 1026.6 hPa | 0 mm | - | 1 W/m² | - |
| 1777693327 | 8.89° C | 75% | 1026.6 hPa | 0 mm | - | 0 W/m² | - |
| 1777692967 | 8.89° C | 76% | 1026.6 hPa | 0 mm | - | 0 W/m² | - |
| 1777692608 | 8.89° C | 75% | 1026.5 hPa | 0 mm | - | 0 W/m² | - |
* Rain latest hour (hover to see other rain measurements)
** Current wind speed in m/s (hover to see current wind gust speed)